Accueil
METAR-TAF:

METAR-TAF

Aéroports :

Aéroport international Lynden Pindling

Nassau, Bahamas

latitude: 25-03N, longitude: 077-28W, altitude: 3 m

Observation

Le bulletin a été fait il y a 9 minutes, à 23:00 UTC
Vent 8 kt de est
Température 30°C
Humidité 70%
Pression 1021 hPa
Visibilité 10 km ou plus
Nuages épars à une hauteur de 2000 ft
Nuages fragmentés à une hauteur de 22000 ft

METAR: MYNN 162300Z 10008KT 9999 SCT020 BKN220 30/24 A3014

Heure: 19:09 (23:09 UTC)

Prévision

Le bulletin a été fait il y a 6 heures et 39 minutes, à 16:30 UTC
Prévision valable du 16 à 18 UTC au 17 à 18 UTC
Vent 14 kt de est/sud-est
Visibilité 10 km ou plus
Quelques nuages à une hauteur de 1600 ft, Cumulonimbus.
Nuages épars à une hauteur de 2000 ft
Nuages fragmentés à une hauteur de 20000 ft

TAF: MYNN 161630Z 1618/1718 12014KT 9999 FEW016CB SCT020 BKN200

Observations et prévisions météorologiques de plus de 4000 aéroports (messages METAR et TAF).

Les stations disponibles sont représentées par des disques jaunes et rouges sur la carte.

Passer la souris dessus pour voir le nom de la station.

Cliquer dessus pour voir les observations et prévisions météorologiques.

Pour changer de carte: cliquez sur les boutons verts avec une croix noire pour zoomer, sur le bouton vert avec un tiret pour effectuer un zoom arrière, ou sur les flèches vertes pour les cartes adjacentes.


METAR-TAF: